sensor_id;sensor_type;location;lat;lon;timestamp;temperature;humidity
20735;DHT22;10528;52.124;5.196;2023-06-10T00:00:47;22.00;99.90
20735;DHT22;10528;52.124;5.196;2023-06-10T00:03:14;22.00;99.90
20735;DHT22;10528;52.124;5.196;2023-06-10T00:05:41;22.00;99.90
20735;DHT22;10528;52.124;5.196;2023-06-10T00:08:08;21.90;99.90
20735;DHT22;10528;52.124;5.196;2023-06-10T00:10:36;21.90;99.90
20735;DHT22;10528;52.124;5.196;2023-06-10T00:13:05;21.90;99.90
20735;DHT22;10528;52.124;5.196;2023-06-10T00:15:35;21.70;99.90
20735;DHT22;10528;52.124;5.196;2023-06-10T00:18:03;21.80;99.90
20735;DHT22;10528;52.124;5.196;2023-06-10T00:20:33;21.80;99.90
20735;DHT22;10528;52.124;5.196;2023-06-10T00:23:02;21.80;99.90
20735;DHT22;10528;52.124;5.196;2023-06-10T00:25:29;21.80;99.90
20735;DHT22;10528;52.124;5.196;2023-06-10T00:27:56;21.70;99.90
20735;DHT22;10528;52.124;5.196;2023-06-10T00:30:23;21.70;99.90
20735;DHT22;10528;52.124;5.196;2023-06-10T00:32:50;21.60;99.90
20735;DHT22;10528;52.124;5.196;2023-06-10T00:35:17;21.60;99.90
20735;DHT22;10528;52.124;5.196;2023-06-10T00:37:43;21.70;99.90
20735;DHT22;10528;52.124;5.196;2023-06-10T00:40:11;21.50;99.90
20735;DHT22;10528;52.124;5.196;2023-06-10T00:42:38;21.40;99.90
20735;DHT22;10528;52.124;5.196;2023-06-10T00:45:05;21.40;99.90
20735;DHT22;10528;52.124;5.196;2023-06-10T00:47:35;21.40;99.90
20735;DHT22;10528;52.124;5.196;2023-06-10T00:50:03;21.30;99.90
20735;DHT22;10528;52.124;5.196;2023-06-10T00:52:31;21.30;99.90
20735;DHT22;10528;52.124;5.196;2023-06-10T00:54:58;21.30;99.90
20735;DHT22;10528;52.124;5.196;2023-06-10T00:57:26;21.20;99.90
20735;DHT22;10528;52.124;5.196;2023-06-10T00:59:54;21.20;99.90
20735;DHT22;10528;52.124;5.196;2023-06-10T01:02:21;21.30;99.90
20735;DHT22;10528;52.124;5.196;2023-06-10T01:04:48;21.20;99.90
20735;DHT22;10528;52.124;5.196;2023-06-10T01:07:34;21.20;99.90
20735;DHT22;10528;52.124;5.196;2023-06-10T01:10:11;21.20;99.90
20735;DHT22;10528;52.124;5.196;2023-06-10T01:13:09;21.20;99.90
20735;DHT22;10528;52.124;5.196;2023-06-10T01:15:38;21.10;99.90
20735;DHT22;10528;52.124;5.196;2023-06-10T01:18:10;20.90;99.90
20735;DHT22;10528;52.124;5.196;2023-06-10T01:20:44;20.90;99.90
20735;DHT22;10528;52.124;5.196;2023-06-10T01:23:12;20.90;99.90
20735;DHT22;10528;52.124;5.196;2023-06-10T01:25:41;20.80;99.90
20735;DHT22;10528;52.124;5.196;2023-06-10T01:28:19;20.90;99.90
20735;DHT22;10528;52.124;5.196;2023-06-10T01:33:42;20.90;99.90
20735;DHT22;10528;52.124;5.196;2023-06-10T01:36:13;20.90;99.90
20735;DHT22;10528;52.124;5.196;2023-06-10T01:38:44;20.80;99.90
20735;DHT22;10528;52.124;5.196;2023-06-10T01:41:15;20.80;99.90
20735;DHT22;10528;52.124;5.196;2023-06-10T01:43:44;20.80;99.90
20735;DHT22;10528;52.124;5.196;2023-06-10T01:46:14;20.70;99.90
20735;DHT22;10528;52.124;5.196;2023-06-10T01:48:42;20.70;99.90
20735;DHT22;10528;52.124;5.196;2023-06-10T01:51:09;20.70;99.90
20735;DHT22;10528;52.124;5.196;2023-06-10T01:53:36;20.70;99.90
20735;DHT22;10528;52.124;5.196;2023-06-10T01:56:03;20.70;99.90
20735;DHT22;10528;52.124;5.196;2023-06-10T01:58:30;20.60;99.90
20735;DHT22;10528;52.124;5.196;2023-06-10T02:00:57;20.60;99.90
20735;DHT22;10528;52.124;5.196;2023-06-10T02:03:24;20.50;99.90
20735;DHT22;10528;52.124;5.196;2023-06-10T02:05:51;20.50;99.90
20735;DHT22;10528;52.124;5.196;2023-06-10T02:08:18;20.50;99.90
20735;DHT22;10528;52.124;5.196;2023-06-10T02:10:45;20.50;99.90
20735;DHT22;10528;52.124;5.196;2023-06-10T02:13:12;20.50;99.90
20735;DHT22;10528;52.124;5.196;2023-06-10T02:15:38;20.50;99.90
20735;DHT22;10528;52.124;5.196;2023-06-10T02:18:05;20.50;99.90
20735;DHT22;10528;52.124;5.196;2023-06-10T02:20:32;20.40;99.90
20735;DHT22;10528;52.124;5.196;2023-06-10T02:23:00;20.40;99.90
20735;DHT22;10528;52.124;5.196;2023-06-10T02:25:28;20.30;99.90
20735;DHT22;10528;52.124;5.196;2023-06-10T02:27:56;20.30;99.90
20735;DHT22;10528;52.124;5.196;2023-06-10T02:30:24;20.30;99.90
20735;DHT22;10528;52.124;5.196;2023-06-10T02:32:51;20.30;99.90
20735;DHT22;10528;52.124;5.196;2023-06-10T02:35:19;20.30;99.90
20735;DHT22;10528;52.124;5.196;2023-06-10T02:37:46;20.30;99.90
20735;DHT22;10528;52.124;5.196;2023-06-10T02:40:14;20.20;99.90
20735;DHT22;10528;52.124;5.196;2023-06-10T02:42:41;20.10;99.90
20735;DHT22;10528;52.124;5.196;2023-06-10T02:45:08;20.10;99.90
20735;DHT22;10528;52.124;5.196;2023-06-10T02:47:39;20.10;99.90
20735;DHT22;10528;52.124;5.196;2023-06-10T02:50:07;20.10;99.90
20735;DHT22;10528;52.124;5.196;2023-06-10T02:52:41;20.10;99.90
20735;DHT22;10528;52.124;5.196;2023-06-10T02:55:09;20.10;99.90
20735;DHT22;10528;52.124;5.196;2023-06-10T02:57:38;20.00;99.90
20735;DHT22;10528;52.124;5.196;2023-06-10T03:00:06;20.00;99.90
20735;DHT22;10528;52.124;5.196;2023-06-10T03:02:38;19.90;99.90
20735;DHT22;10528;52.124;5.196;2023-06-10T03:05:07;19.80;99.90
20735;DHT22;10528;52.124;5.196;2023-06-10T03:07:40;19.90;99.90
20735;DHT22;10528;52.124;5.196;2023-06-10T03:10:08;19.80;99.90
20735;DHT22;10528;52.124;5.196;2023-06-10T03:12:38;19.80;99.90
20735;DHT22;10528;52.124;5.196;2023-06-10T03:15:05;19.80;99.90
20735;DHT22;10528;52.124;5.196;2023-06-10T03:17:34;19.70;99.90
20735;DHT22;10528;52.124;5.196;2023-06-10T03:20:02;19.70;99.90
20735;DHT22;10528;52.124;5.196;2023-06-10T03:22:32;19.80;99.90
20735;DHT22;10528;52.124;5.196;2023-06-10T03:25:06;19.70;99.90
20735;DHT22;10528;52.124;5.196;2023-06-10T03:27:35;19.60;99.90
20735;DHT22;10528;52.124;5.196;2023-06-10T03:30:06;19.60;99.90
20735;DHT22;10528;52.124;5.196;2023-06-10T03:32:33;19.70;99.90
20735;DHT22;10528;52.124;5.196;2023-06-10T03:35:00;19.60;99.90
20735;DHT22;10528;52.124;5.196;2023-06-10T03:37:29;19.60;99.90
20735;DHT22;10528;52.124;5.196;2023-06-10T03:39:56;19.60;99.90
20735;DHT22;10528;52.124;5.196;2023-06-10T03:42:23;19.50;99.90
20735;DHT22;10528;52.124;5.196;2023-06-10T03:44:51;19.60;99.90
20735;DHT22;10528;52.124;5.196;2023-06-10T03:47:18;19.50;99.90
20735;DHT22;10528;52.124;5.196;2023-06-10T03:49:45;19.60;99.90
20735;DHT22;10528;52.124;5.196;2023-06-10T03:52:12;19.50;99.90
20735;DHT22;10528;52.124;5.196;2023-06-10T03:54:39;19.50;99.90
20735;DHT22;10528;52.124;5.196;2023-06-10T03:57:06;19.50;99.90
20735;DHT22;10528;52.124;5.196;2023-06-10T03:59:34;19.50;99.90
20735;DHT22;10528;52.124;5.196;2023-06-10T04:02:00;19.50;99.90
20735;DHT22;10528;52.124;5.196;2023-06-10T04:04:28;19.50;99.90
20735;DHT22;10528;52.124;5.196;2023-06-10T04:06:55;19.40;99.90
20735;DHT22;10528;52.124;5.196;2023-06-10T04:09:22;19.40;99.90
20735;DHT22;10528;52.124;5.196;2023-06-10T04:11:50;19.50;99.90
20735;DHT22;10528;52.124;5.196;2023-06-10T04:14:17;19.50;99.90
20735;DHT22;10528;52.124;5.196;2023-06-10T04:16:45;19.50;99.90
20735;DHT22;10528;52.124;5.196;2023-06-10T04:19:12;19.40;99.90
20735;DHT22;10528;52.124;5.196;2023-06-10T04:21:39;19.40;99.90
20735;DHT22;10528;52.124;5.196;2023-06-10T04:24:06;19.50;99.90
20735;DHT22;10528;52.124;5.196;2023-06-10T04:26:35;19.50;99.90
20735;DHT22;10528;52.124;5.196;2023-06-10T04:29:02;19.50;99.90
20735;DHT22;10528;52.124;5.196;2023-06-10T04:31:30;19.50;99.90
20735;DHT22;10528;52.124;5.196;2023-06-10T04:33:57;19.60;99.90
20735;DHT22;10528;52.124;5.196;2023-06-10T04:36:24;19.60;99.90
20735;DHT22;10528;52.124;5.196;2023-06-10T04:38:51;19.70;99.90
20735;DHT22;10528;52.124;5.196;2023-06-10T04:41:19;19.70;99.90
20735;DHT22;10528;52.124;5.196;2023-06-10T04:43:46;19.60;99.90
20735;DHT22;10528;52.124;5.196;2023-06-10T04:46:13;19.70;99.90
20735;DHT22;10528;52.124;5.196;2023-06-10T04:48:40;19.70;99.90
20735;DHT22;10528;52.124;5.196;2023-06-10T04:51:08;19.80;99.90
20735;DHT22;10528;52.124;5.196;2023-06-10T04:53:36;20.20;99.90
20735;DHT22;10528;52.124;5.196;2023-06-10T04:56:03;20.90;99.90
20735;DHT22;10528;52.124;5.196;2023-06-10T04:58:30;21.40;99.90
20735;DHT22;10528;52.124;5.196;2023-06-10T05:00:57;21.60;99.90
20735;DHT22;10528;52.124;5.196;2023-06-10T05:03:24;21.80;99.90
20735;DHT22;10528;52.124;5.196;2023-06-10T05:05:51;22.20;99.90
20735;DHT22;10528;52.124;5.196;2023-06-10T05:08:18;22.40;99.90
20735;DHT22;10528;52.124;5.196;2023-06-10T05:10:45;22.60;99.90
20735;DHT22;10528;52.124;5.196;2023-06-10T05:13:11;22.70;99.90
20735;DHT22;10528;52.124;5.196;2023-06-10T05:15:38;22.80;99.90
20735;DHT22;10528;52.124;5.196;2023-06-10T05:18:05;22.80;99.90
20735;DHT22;10528;52.124;5.196;2023-06-10T05:20:32;22.70;99.90
20735;DHT22;10528;52.124;5.196;2023-06-10T05:22:59;22.90;99.90
20735;DHT22;10528;52.124;5.196;2023-06-10T05:25:28;23.30;99.90
20735;DHT22;10528;52.124;5.196;2023-06-10T05:27:56;23.80;99.90
20735;DHT22;10528;52.124;5.196;2023-06-10T05:30:23;23.50;99.90
20735;DHT22;10528;52.124;5.196;2023-06-10T05:32:51;23.70;99.90
20735;DHT22;10528;52.124;5.196;2023-06-10T05:35:19;24.00;99.90
20735;DHT22;10528;52.124;5.196;2023-06-10T05:37:46;24.10;99.90
20735;DHT22;10528;52.124;5.196;2023-06-10T05:40:13;24.20;99.90
20735;DHT22;10528;52.124;5.196;2023-06-10T05:42:40;24.90;99.90
20735;DHT22;10528;52.124;5.196;2023-06-10T05:45:07;24.40;99.90
20735;DHT22;10528;52.124;5.196;2023-06-10T05:47:35;24.70;99.90
20735;DHT22;10528;52.124;5.196;2023-06-10T05:50:02;24.70;99.90
20735;DHT22;10528;52.124;5.196;2023-06-10T05:52:34;25.30;99.90
20735;DHT22;10528;52.124;5.196;2023-06-10T05:55:05;25.40;99.90
20735;DHT22;10528;52.124;5.196;2023-06-10T05:57:33;25.50;99.90
20735;DHT22;10528;52.124;5.196;2023-06-10T06:00:00;25.30;99.90
20735;DHT22;10528;52.124;5.196;2023-06-10T06:02:27;25.50;99.90
20735;DHT22;10528;52.124;5.196;2023-06-10T06:04:54;25.50;99.90
20735;DHT22;10528;52.124;5.196;2023-06-10T06:07:21;25.80;99.90
20735;DHT22;10528;52.124;5.196;2023-06-10T06:09:48;25.60;99.90
20735;DHT22;10528;52.124;5.196;2023-06-10T06:12:15;25.60;99.90
20735;DHT22;10528;52.124;5.196;2023-06-10T06:14:42;26.10;99.90
20735;DHT22;10528;52.124;5.196;2023-06-10T06:17:09;26.40;99.90
20735;DHT22;10528;52.124;5.196;2023-06-10T06:19:36;27.10;99.90
20735;DHT22;10528;52.124;5.196;2023-06-10T06:22:03;27.10;99.90
20735;DHT22;10528;52.124;5.196;2023-06-10T06:24:30;26.30;99.90
20735;DHT22;10528;52.124;5.196;2023-06-10T06:26:57;26.60;99.90
20735;DHT22;10528;52.124;5.196;2023-06-10T06:29:24;27.20;99.90
20735;DHT22;10528;52.124;5.196;2023-06-10T06:31:51;26.70;99.90
20735;DHT22;10528;52.124;5.196;2023-06-10T06:34:18;27.30;99.90
20735;DHT22;10528;52.124;5.196;2023-06-10T06:36:45;27.20;99.90
20735;DHT22;10528;52.124;5.196;2023-06-10T06:39:12;27.40;99.90
20735;DHT22;10528;52.124;5.196;2023-06-10T06:41:39;27.40;99.90
20735;DHT22;10528;52.124;5.196;2023-06-10T06:44:05;27.40;99.90
20735;DHT22;10528;52.124;5.196;2023-06-10T06:46:37;27.40;99.90
20735;DHT22;10528;52.124;5.196;2023-06-10T06:49:04;27.20;99.90
20735;DHT22;10528;52.124;5.196;2023-06-10T06:51:31;27.20;99.90
20735;DHT22;10528;52.124;5.196;2023-06-10T06:53:58;27.10;99.90
20735;DHT22;10528;52.124;5.196;2023-06-10T06:56:25;26.40;99.90
20735;DHT22;10528;52.124;5.196;2023-06-10T06:58:54;27.00;99.90
20735;DHT22;10528;52.124;5.196;2023-06-10T07:01:23;27.00;99.90
20735;DHT22;10528;52.124;5.196;2023-06-10T07:03:50;27.20;99.90
20735;DHT22;10528;52.124;5.196;2023-06-10T07:06:17;28.10;99.90
20735;DHT22;10528;52.124;5.196;2023-06-10T07:08:44;29.20;99.90
20735;DHT22;10528;52.124;5.196;2023-06-10T07:11:11;29.60;99.90
20735;DHT22;10528;52.124;5.196;2023-06-10T07:13:38;29.40;99.90
20735;DHT22;10528;52.124;5.196;2023-06-10T07:16:05;28.80;99.90
20735;DHT22;10528;52.124;5.196;2023-06-10T07:18:40;28.20;99.90
20735;DHT22;10528;52.124;5.196;2023-06-10T07:21:14;28.90;99.90
20735;DHT22;10528;52.124;5.196;2023-06-10T07:24:08;29.20;99.90
20735;DHT22;10528;52.124;5.196;2023-06-10T07:27:11;28.60;99.90
20735;DHT22;10528;52.124;5.196;2023-06-10T07:29:39;29.50;99.90
20735;DHT22;10528;52.124;5.196;2023-06-10T07:32:08;29.70;99.90
20735;DHT22;10528;52.124;5.196;2023-06-10T07:34:36;29.60;99.90
20735;DHT22;10528;52.124;5.196;2023-06-10T07:37:05;29.00;99.90
20735;DHT22;10528;52.124;5.196;2023-06-10T07:39:35;29.50;99.90
20735;DHT22;10528;52.124;5.196;2023-06-10T07:42:04;29.80;99.90
20735;DHT22;10528;52.124;5.196;2023-06-10T07:44:36;30.80;99.90
20735;DHT22;10528;52.124;5.196;2023-06-10T07:47:04;29.60;99.90
20735;DHT22;10528;52.124;5.196;2023-06-10T07:49:33;30.30;99.90
20735;DHT22;10528;52.124;5.196;2023-06-10T07:52:04;29.50;99.90
20735;DHT22;10528;52.124;5.196;2023-06-10T07:54:36;29.60;99.30
20735;DHT22;10528;52.124;5.196;2023-06-10T07:57:04;30.00;99.30
20735;DHT22;10528;52.124;5.196;2023-06-10T07:59:36;29.90;99.40
20735;DHT22;10528;52.124;5.196;2023-06-10T08:02:05;30.20;98.70
20735;DHT22;10528;52.124;5.196;2023-06-10T08:04:34;30.60;98.60
20735;DHT22;10528;52.124;5.196;2023-06-10T08:07:06;31.30;98.40
20735;DHT22;10528;52.124;5.196;2023-06-10T08:09:34;30.80;98.20
20735;DHT22;10528;52.124;5.196;2023-06-10T08:12:09;30.40;97.70
20735;DHT22;10528;52.124;5.196;2023-06-10T08:14:40;30.60;98.00
20735;DHT22;10528;52.124;5.196;2023-06-10T08:17:15;31.00;98.00
20735;DHT22;10528;52.124;5.196;2023-06-10T08:19:43;31.10;98.00
20735;DHT22;10528;52.124;5.196;2023-06-10T08:22:14;30.40;97.20
20735;DHT22;10528;52.124;5.196;2023-06-10T08:24:42;30.30;97.20
20735;DHT22;10528;52.124;5.196;2023-06-10T08:27:16;30.50;97.60
20735;DHT22;10528;52.124;5.196;2023-06-10T08:29:49;30.70;97.80
20735;DHT22;10528;52.124;5.196;2023-06-10T08:32:21;30.30;97.50
20735;DHT22;10528;52.124;5.196;2023-06-10T08:34:51;30.30;97.40
20735;DHT22;10528;52.124;5.196;2023-06-10T08:37:22;30.50;98.00
20735;DHT22;10528;52.124;5.196;2023-06-10T08:39:55;29.90;97.30
20735;DHT22;10528;52.124;5.196;2023-06-10T08:42:35;29.80;97.60
20735;DHT22;10528;52.124;5.196;2023-06-10T08:45:15;29.70;97.60
20735;DHT22;10528;52.124;5.196;2023-06-10T08:47:50;29.90;98.20
20735;DHT22;10528;52.124;5.196;2023-06-10T08:50:24;30.40;98.30
20735;DHT22;10528;52.124;5.196;2023-06-10T08:52:57;30.50;97.50
20735;DHT22;10528;52.124;5.196;2023-06-10T08:55:46;30.70;96.40
20735;DHT22;10528;52.124;5.196;2023-06-10T08:58:25;30.20;96.10
20735;DHT22;10528;52.124;5.196;2023-06-10T09:00:54;29.70;96.30
20735;DHT22;10528;52.124;5.196;2023-06-10T09:03:23;30.10;97.00
20735;DHT22;10528;52.124;5.196;2023-06-10T09:06:04;30.00;97.00
20735;DHT22;10528;52.124;5.196;2023-06-10T09:08:40;29.60;96.80
20735;DHT22;10528;52.124;5.196;2023-06-10T09:11:08;29.60;96.60
20735;DHT22;10528;52.124;5.196;2023-06-10T09:13:41;29.60;96.40
20735;DHT22;10528;52.124;5.196;2023-06-10T09:16:10;29.70;96.20
20735;DHT22;10528;52.124;5.196;2023-06-10T09:18:40;29.50;96.10
20735;DHT22;10528;52.124;5.196;2023-06-10T09:21:08;29.40;96.00
20735;DHT22;10528;52.124;5.196;2023-06-10T09:23:40;29.70;96.50
20735;DHT22;10528;52.124;5.196;2023-06-10T09:26:11;29.90;96.20
20735;DHT22;10528;52.124;5.196;2023-06-10T09:28:45;29.70;96.00
20735;DHT22;10528;52.124;5.196;2023-06-10T09:31:16;29.60;96.20
20735;DHT22;10528;52.124;5.196;2023-06-10T09:33:46;29.70;95.70
20735;DHT22;10528;52.124;5.196;2023-06-10T09:36:23;30.00;95.90
20735;DHT22;10528;52.124;5.196;2023-06-10T09:38:51;30.00;95.50
20735;DHT22;10528;52.124;5.196;2023-06-10T09:41:22;30.30;95.90
20735;DHT22;10528;52.124;5.196;2023-06-10T09:44:01;30.10;94.80
20735;DHT22;10528;52.124;5.196;2023-06-10T09:46:36;30.50;95.60
20735;DHT22;10528;52.124;5.196;2023-06-10T09:49:04;30.80;95.10
20735;DHT22;10528;52.124;5.196;2023-06-10T09:51:35;30.10;93.60
20735;DHT22;10528;52.124;5.196;2023-06-10T09:54:03;30.10;94.90
20735;DHT22;10528;52.124;5.196;2023-06-10T09:56:36;30.50;94.10
20735;DHT22;10528;52.124;5.196;2023-06-10T09:59:08;30.60;94.30
20735;DHT22;10528;52.124;5.196;2023-06-10T10:01:36;30.60;94.50
20735;DHT22;10528;52.124;5.196;2023-06-10T10:04:04;30.70;94.40
20735;DHT22;10528;52.124;5.196;2023-06-10T10:06:35;30.70;93.60
20735;DHT22;10528;52.124;5.196;2023-06-10T10:09:06;30.70;93.80
20735;DHT22;10528;52.124;5.196;2023-06-10T10:11:34;30.40;92.80
20735;DHT22;10528;52.124;5.196;2023-06-10T10:14:04;30.40;92.80
20735;DHT22;10528;52.124;5.196;2023-06-10T10:16:37;30.30;92.70
20735;DHT22;10528;52.124;5.196;2023-06-10T10:19:20;30.50;93.90
20735;DHT22;10528;52.124;5.196;2023-06-10T10:22:06;30.70;92.60
20735;DHT22;10528;52.124;5.196;2023-06-10T10:24:49;30.70;91.80
20735;DHT22;10528;52.124;5.196;2023-06-10T10:27:30;31.00;92.00
20735;DHT22;10528;52.124;5.196;2023-06-10T10:30:07;31.30;92.10
20735;DHT22;10528;52.124;5.196;2023-06-10T10:32:51;31.10;91.40
20735;DHT22;10528;52.124;5.196;2023-06-10T10:35:40;31.00;91.20
20735;DHT22;10528;52.124;5.196;2023-06-10T10:38:25;31.40;91.80
20735;DHT22;10528;52.124;5.196;2023-06-10T10:40:56;31.70;90.30
20735;DHT22;10528;52.124;5.196;2023-06-10T10:43:30;30.90;90.00
20735;DHT22;10528;52.124;5.196;2023-06-10T10:46:13;31.00;89.50
20735;DHT22;10528;52.124;5.196;2023-06-10T10:48:43;30.90;89.70
20735;DHT22;10528;52.124;5.196;2023-06-10T10:51:12;31.10;88.40
20735;DHT22;10528;52.124;5.196;2023-06-10T10:54:14;31.70;90.50
20735;DHT22;10528;52.124;5.196;2023-06-10T11:02:34;32.00;86.30
20735;DHT22;10528;52.124;5.196;2023-06-10T11:05:16;31.80;85.70
20735;DHT22;10528;52.124;5.196;2023-06-10T11:07:55;31.30;84.80
20735;DHT22;10528;52.124;5.196;2023-06-10T11:10:30;31.00;85.40
20735;DHT22;10528;52.124;5.196;2023-06-10T11:13:13;31.50;85.20
20735;DHT22;10528;52.124;5.196;2023-06-10T11:15:46;31.50;87.20
20735;DHT22;10528;52.124;5.196;2023-06-10T11:21:04;31.90;88.70
20735;DHT22;10528;52.124;5.196;2023-06-10T11:23:34;31.80;85.20
20735;DHT22;10528;52.124;5.196;2023-06-10T11:34:12;31.30;83.50
20735;DHT22;10528;52.124;5.196;2023-06-10T11:36:43;31.50;85.10
20735;DHT22;10528;52.124;5.196;2023-06-10T11:39:20;31.60;84.90
20735;DHT22;10528;52.124;5.196;2023-06-10T11:41:51;31.70;84.10
20735;DHT22;10528;52.124;5.196;2023-06-10T11:44:28;31.80;83.90
20735;DHT22;10528;52.124;5.196;2023-06-10T11:46:58;31.10;83.90
20735;DHT22;10528;52.124;5.196;2023-06-10T11:49:27;31.40;84.80
20735;DHT22;10528;52.124;5.196;2023-06-10T11:51:57;31.30;84.30
20735;DHT22;10528;52.124;5.196;2023-06-10T11:54:28;31.10;84.00
20735;DHT22;10528;52.124;5.196;2023-06-10T11:57:01;31.10;83.40
20735;DHT22;10528;52.124;5.196;2023-06-10T11:59:33;31.10;83.20
20735;DHT22;10528;52.124;5.196;2023-06-10T12:02:04;31.30;83.00
20735;DHT22;10528;52.124;5.196;2023-06-10T12:04:35;31.30;82.40
20735;DHT22;10528;52.124;5.196;2023-06-10T12:07:17;31.40;83.50
20735;DHT22;10528;52.124;5.196;2023-06-10T12:09:59;31.30;83.20
20735;DHT22;10528;52.124;5.196;2023-06-10T12:12:50;31.30;82.80
20735;DHT22;10528;52.124;5.196;2023-06-10T12:15:30;31.10;83.20
20735;DHT22;10528;52.124;5.196;2023-06-10T12:18:01;31.40;83.20
20735;DHT22;10528;52.124;5.196;2023-06-10T12:20:31;31.40;81.80
20735;DHT22;10528;52.124;5.196;2023-06-10T12:23:10;31.20;81.80
20735;DHT22;10528;52.124;5.196;2023-06-10T12:26:05;30.90;81.40
20735;DHT22;10528;52.124;5.196;2023-06-10T12:28:38;31.00;82.00
20735;DHT22;10528;52.124;5.196;2023-06-10T12:31:11;31.20;83.50
20735;DHT22;10528;52.124;5.196;2023-06-10T12:33:42;31.10;80.90
20735;DHT22;10528;52.124;5.196;2023-06-10T12:36:17;31.00;81.50
20735;DHT22;10528;52.124;5.196;2023-06-10T12:38:46;30.80;80.70
20735;DHT22;10528;52.124;5.196;2023-06-10T12:41:18;30.80;81.20
20735;DHT22;10528;52.124;5.196;2023-06-10T12:43:46;30.80;82.60
20735;DHT22;10528;52.124;5.196;2023-06-10T12:46:15;31.00;82.80
20735;DHT22;10528;52.124;5.196;2023-06-10T12:48:52;31.20;80.80
20735;DHT22;10528;52.124;5.196;2023-06-10T12:51:22;31.00;80.80
20735;DHT22;10528;52.124;5.196;2023-06-10T12:53:55;30.90;80.80
20735;DHT22;10528;52.124;5.196;2023-06-10T12:56:32;31.00;82.30
20735;DHT22;10528;52.124;5.196;2023-06-10T12:59:02;31.10;81.20
20735;DHT22;10528;52.124;5.196;2023-06-10T13:01:31;31.00;79.80
20735;DHT22;10528;52.124;5.196;2023-06-10T13:04:07;30.70;79.80
20735;DHT22;10528;52.124;5.196;2023-06-10T13:06:48;30.70;79.00
20735;DHT22;10528;52.124;5.196;2023-06-10T13:09:19;30.90;80.50
20735;DHT22;10528;52.124;5.196;2023-06-10T13:11:50;31.00;79.70
20735;DHT22;10528;52.124;5.196;2023-06-10T13:14:36;30.90;78.00
20735;DHT22;10528;52.124;5.196;2023-06-10T13:17:20;30.70;79.20
20735;DHT22;10528;52.124;5.196;2023-06-10T13:20:18;30.90;80.00
20735;DHT22;10528;52.124;5.196;2023-06-10T13:23:05;30.60;76.70
20735;DHT22;10528;52.124;5.196;2023-06-10T13:25:41;30.70;77.90
20735;DHT22;10528;52.124;5.196;2023-06-10T13:28:15;30.70;78.40
20735;DHT22;10528;52.124;5.196;2023-06-10T13:30:57;30.50;78.10
20735;DHT22;10528;52.124;5.196;2023-06-10T13:33:42;30.60;79.20
20735;DHT22;10528;52.124;5.196;2023-06-10T13:39:36;30.50;78.60
20735;DHT22;10528;52.124;5.196;2023-06-10T13:42:43;30.30;79.80
20735;DHT22;10528;52.124;5.196;2023-06-10T13:45:32;30.30;77.50
20735;DHT22;10528;52.124;5.196;2023-06-10T13:48:27;30.40;77.70
20735;DHT22;10528;52.124;5.196;2023-06-10T13:51:03;30.30;78.40
20735;DHT22;10528;52.124;5.196;2023-06-10T13:53:43;30.60;79.50
20735;DHT22;10528;52.124;5.196;2023-06-10T13:56:18;30.60;80.00
20735;DHT22;10528;52.124;5.196;2023-06-10T13:58:46;30.90;80.20
20735;DHT22;10528;52.124;5.196;2023-06-10T14:01:22;30.80;78.60
20735;DHT22;10528;52.124;5.196;2023-06-10T14:03:58;30.60;78.20
20735;DHT22;10528;52.124;5.196;2023-06-10T14:06:27;30.60;78.00
20735;DHT22;10528;52.124;5.196;2023-06-10T14:09:02;30.70;79.30
20735;DHT22;10528;52.124;5.196;2023-06-10T14:11:30;30.70;79.00
20735;DHT22;10528;52.124;5.196;2023-06-10T14:14:04;30.60;77.40
20735;DHT22;10528;52.124;5.196;2023-06-10T14:16:44;30.60;78.40
20735;DHT22;10528;52.124;5.196;2023-06-10T14:19:14;30.70;79.10
20735;DHT22;10528;52.124;5.196;2023-06-10T14:21:45;30.80;79.30
20735;DHT22;10528;52.124;5.196;2023-06-10T14:24:14;30.70;78.30
20735;DHT22;10528;52.124;5.196;2023-06-10T14:26:43;30.60;78.50
20735;DHT22;10528;52.124;5.196;2023-06-10T14:29:17;30.30;77.90
20735;DHT22;10528;52.124;5.196;2023-06-10T14:31:52;30.30;79.50
20735;DHT22;10528;52.124;5.196;2023-06-10T14:34:23;30.50;79.20
20735;DHT22;10528;52.124;5.196;2023-06-10T14:36:56;30.50;81.60
20735;DHT22;10528;52.124;5.196;2023-06-10T14:39:23;30.60;83.00
20735;DHT22;10528;52.124;5.196;2023-06-10T14:41:57;30.50;78.30
20735;DHT22;10528;52.124;5.196;2023-06-10T14:44:25;30.40;78.40
20735;DHT22;10528;52.124;5.196;2023-06-10T14:46:52;30.20;78.30
20735;DHT22;10528;52.124;5.196;2023-06-10T14:49:23;30.30;79.70
20735;DHT22;10528;52.124;5.196;2023-06-10T14:51:58;30.30;81.80
20735;DHT22;10528;52.124;5.196;2023-06-10T14:54:29;30.30;81.80
20735;DHT22;10528;52.124;5.196;2023-06-10T14:57:07;30.20;82.80
20735;DHT22;10528;52.124;5.196;2023-06-10T14:59:35;30.20;83.00
20735;DHT22;10528;52.124;5.196;2023-06-10T15:02:06;29.80;83.00
20735;DHT22;10528;52.124;5.196;2023-06-10T15:04:36;30.10;82.60
20735;DHT22;10528;52.124;5.196;2023-06-10T15:07:07;30.30;82.50
20735;DHT22;10528;52.124;5.196;2023-06-10T15:09:35;30.20;82.60
20735;DHT22;10528;52.124;5.196;2023-06-10T15:12:13;30.20;82.10
20735;DHT22;10528;52.124;5.196;2023-06-10T15:14:44;30.30;82.10
20735;DHT22;10528;52.124;5.196;2023-06-10T15:17:12;30.30;81.70
20735;DHT22;10528;52.124;5.196;2023-06-10T15:19:42;30.20;81.70
20735;DHT22;10528;52.124;5.196;2023-06-10T15:22:15;30.30;82.20
20735;DHT22;10528;52.124;5.196;2023-06-10T15:24:43;30.30;80.00
20735;DHT22;10528;52.124;5.196;2023-06-10T15:27:11;30.30;81.00
20735;DHT22;10528;52.124;5.196;2023-06-10T15:29:42;30.40;82.50
20735;DHT22;10528;52.124;5.196;2023-06-10T15:32:17;30.20;81.40
20735;DHT22;10528;52.124;5.196;2023-06-10T15:34:45;30.10;80.20
20735;DHT22;10528;52.124;5.196;2023-06-10T15:37:16;30.10;81.30
20735;DHT22;10528;52.124;5.196;2023-06-10T15:39:47;30.20;82.40
20735;DHT22;10528;52.124;5.196;2023-06-10T15:42:17;30.20;82.20
20735;DHT22;10528;52.124;5.196;2023-06-10T15:44:45;30.10;81.50
20735;DHT22;10528;52.124;5.196;2023-06-10T15:47:16;30.10;81.70
20735;DHT22;10528;52.124;5.196;2023-06-10T15:49:49;30.00;82.10
20735;DHT22;10528;52.124;5.196;2023-06-10T15:52:21;29.90;81.70
20735;DHT22;10528;52.124;5.196;2023-06-10T15:54:51;29.90;81.60
20735;DHT22;10528;52.124;5.196;2023-06-10T15:57:21;29.90;81.50
20735;DHT22;10528;52.124;5.196;2023-06-10T15:59:56;30.00;81.70
20735;DHT22;10528;52.124;5.196;2023-06-10T16:02:27;29.90;80.60
20735;DHT22;10528;52.124;5.196;2023-06-10T16:05:01;29.90;81.20
20735;DHT22;10528;52.124;5.196;2023-06-10T16:07:35;29.90;81.60
20735;DHT22;10528;52.124;5.196;2023-06-10T16:10:06;29.90;81.60
20735;DHT22;10528;52.124;5.196;2023-06-10T16:12:34;30.00;82.20
20735;DHT22;10528;52.124;5.196;2023-06-10T16:15:02;29.80;80.60
20735;DHT22;10528;52.124;5.196;2023-06-10T16:17:30;29.80;80.70